Time;durP1;ratioP1;P1;durP2;ratioP2;P2;SDS_P1;SDS_P2;PMS_P1;PMS_P2;Temp;Humidity;BMP_temperature;BMP_pressure;BME280_temperature;BME280_humidity;BME280_pressure;Samples;Min_cycle;Max_cycle;Signal;HPM_P1;HPM_P2
2022/10/06 00:00:29;;;;;;;15.95;1.85;;;12.90;99.90;;;;;;4920376;29;20052;-81
2022/10/06 00:02:55;;;;;;;15.77;2.70;;;12.90;99.90;;;;;;4920926;29;20138;-80
2022/10/06 00:05:27;;;;;;;8.45;1.40;;;12.90;99.90;;;;;;4920577;29;20479;-80
2022/10/06 00:07:53;;;;;;;9.65;1.95;;;12.90;99.90;;;;;;4937690;29;20071;-80
2022/10/06 00:10:19;;;;;;;7.60;1.40;;;12.90;99.90;;;;;;4920535;29;20559;-80
2022/10/06 00:12:48;;;;;;;8.05;1.15;;;12.90;99.90;;;;;;4937232;29;20152;-81
2022/10/06 00:15:18;;;;;;;7.55;1.45;;;12.80;99.90;;;;;;4920322;29;20083;-81
2022/10/06 00:17:44;;;;;;;10.52;1.55;;;12.70;99.90;;;;;;4937506;29;20052;-81
2022/10/06 00:20:10;;;;;;;14.10;1.88;;;12.70;99.90;;;;;;4920569;29;20144;-81
2022/10/06 00:22:42;;;;;;;7.82;1.33;;;12.70;99.90;;;;;;4938115;29;20040;-80
2022/10/06 00:25:09;;;;;;;6.95;1.50;;;12.60;99.90;;;;;;4920941;29;20391;-81
2022/10/06 00:27:37;;;;;;;9.60;1.20;;;12.60;99.90;;;;;;4920111;29;20039;-81
2022/10/06 00:30:05;;;;;;;7.60;1.10;;;12.60;99.90;;;;;;4920415;29;20531;-81
2022/10/06 00:32:31;;;;;;;9.55;1.50;;;12.60;99.90;;;;;;4937122;29;20594;-80
2022/10/06 00:35:00;;;;;;;15.98;1.92;;;12.50;99.90;;;;;;4937137;29;20110;-81
2022/10/06 00:37:27;;;;;;;12.18;1.80;;;12.50;99.90;;;;;;4937021;29;20047;-81
2022/10/06 00:39:53;;;;;;;14.00;1.65;;;12.50;99.90;;;;;;4937155;29;20047;-81
2022/10/06 00:42:31;;;;;;;9.48;1.70;;;12.60;99.90;;;;;;4937027;29;20048;-81
2022/10/06 00:45:01;;;;;;;9.23;1.80;;;12.50;99.90;;;;;;4919927;29;20483;-81
2022/10/06 00:47:29;;;;;;;11.25;2.25;;;12.60;99.90;;;;;;4919915;29;20134;-81
2022/10/06 00:49:57;;;;;;;14.35;2.05;;;12.60;99.90;;;;;;4936886;29;20040;-81
2022/10/06 00:52:26;;;;;;;14.48;3.47;;;12.60;99.90;;;;;;4919759;29;20051;-81
2022/10/06 00:54:51;;;;;;;13.48;2.28;;;12.60;99.90;;;;;;4936748;29;20082;-81
2022/10/06 00:57:21;;;;;;;13.63;2.42;;;12.60;99.90;;;;;;4919600;29;20071;-81
2022/10/06 00:59:47;;;;;;;11.93;1.85;;;12.50;99.90;;;;;;4919262;29;20059;-81
2022/10/06 01:02:27;;;;;;;13.27;1.30;;;12.50;99.90;;;;;;4919314;29;20048;-82
2022/10/06 01:04:57;;;;;;;7.72;1.52;;;12.50;99.90;;;;;;4919525;29;20051;-80
2022/10/06 01:07:27;;;;;;;10.98;1.60;;;12.50;99.90;;;;;;4919837;29;20487;-81
2022/10/06 01:09:54;;;;;;;11.05;1.30;;;12.50;99.90;;;;;;4919449;29;20458;-81
2022/10/06 01:12:21;;;;;;;12.20;1.95;;;12.50;99.90;;;;;;4919441;29;20047;-81
2022/10/06 01:14:47;;;;;;;13.43;1.52;;;12.50;99.90;;;;;;4936570;29;20098;-80
2022/10/06 01:17:22;;;;;;;11.05;1.58;;;12.40;99.90;;;;;;4919281;29;20047;-81
2022/10/06 01:19:58;;;;;;;9.25;1.65;;;12.40;99.90;;;;;;4936599;29;20051;-81
2022/10/06 01:22:41;;;;;;;14.63;1.83;;;12.40;99.90;;;;;;4937919;29;20039;-80
2022/10/06 01:25:14;;;;;;;13.75;2.35;;;12.40;99.90;;;;;;4920916;29;20044;-81
2022/10/06 01:27:42;;;;;;;12.73;2.30;;;12.40;99.90;;;;;;4923099;29;20043;-80
2022/10/06 01:30:19;;;;;;;10.77;1.70;;;12.30;99.90;;;;;;4938444;29;20039;-81
2022/10/06 01:32:44;;;;;;;10.98;1.50;;;12.30;99.90;;;;;;4921490;29;20103;-81
2022/10/06 01:35:11;;;;;;;12.48;1.90;;;12.30;99.90;;;;;;4921676;29;20138;-81
2022/10/06 01:37:36;;;;;;;14.90;1.70;;;12.30;99.90;;;;;;4938435;29;20043;-81
2022/10/06 01:40:02;;;;;;;9.88;2.40;;;12.20;99.90;;;;;;4920338;29;20376;-81
2022/10/06 01:42:30;;;;;;;9.98;1.63;;;12.20;99.90;;;;;;4919961;29;20039;-81
2022/10/06 01:44:56;;;;;;;11.32;1.35;;;12.20;99.90;;;;;;4937874;29;20402;-80
2022/10/06 01:47:22;;;;;;;11.20;1.55;;;12.20;99.90;;;;;;4938384;29;20510;-81
2022/10/06 01:49:47;;;;;;;10.05;1.77;;;12.20;99.90;;;;;;4920661;29;20075;-81
2022/10/06 01:52:13;;;;;;;12.80;1.67;;;12.20;99.90;;;;;;4919492;29;20047;-81
2022/10/06 01:54:39;;;;;;;8.32;1.70;;;12.20;99.90;;;;;;4919301;29;20047;-81
2022/10/06 01:57:07;;;;;;;9.90;1.77;;;12.10;99.90;;;;;;4919511;29;20051;-81
2022/10/06 01:59:33;;;;;;;9.63;1.40;;;12.10;99.90;;;;;;4919257;29;20056;-81
2022/10/06 02:01:58;;;;;;;10.80;1.55;;;12.20;99.90;;;;;;4920519;29;20102;-81
2022/10/06 02:04:24;;;;;;;8.13;1.40;;;12.30;99.90;;;;;;4920582;29;20098;-81
2022/10/06 02:06:50;;;;;;;10.40;1.52;;;12.20;99.90;;;;;;4937594;29;20107;-81
2022/10/06 02:09:16;;;;;;;13.40;1.63;;;12.20;99.90;;;;;;4918825;29;20403;-80
2022/10/06 02:11:42;;;;;;;10.43;1.60;;;12.30;99.90;;;;;;4920805;29;20051;-81
2022/10/06 02:14:08;;;;;;;9.65;1.35;;;12.30;99.90;;;;;;4940234;29;20096;-81
2022/10/06 02:16:34;;;;;;;8.77;1.52;;;12.30;99.90;;;;;;4925244;29;20486;-81
2022/10/06 02:19:00;;;;;;;6.82;1.30;;;12.30;99.90;;;;;;4924273;29;20055;-81
2022/10/06 02:21:26;;;;;;;14.75;1.90;;;12.20;99.90;;;;;;4923869;29;20521;-81
2022/10/06 02:23:51;;;;;;;8.02;1.60;;;12.20;99.90;;;;;;4922379;29;20175;-81
2022/10/06 02:26:18;;;;;;;12.07;2.20;;;12.10;99.90;;;;;;4922522;29;20134;-81
2022/10/06 02:28:45;;;;;;;12.82;1.42;;;12.00;99.90;;;;;;4941491;29;20043;-81
2022/10/06 02:31:11;;;;;;;7.13;1.70;;;12.00;99.90;;;;;;4924074;29;20044;-81
2022/10/06 02:33:38;;;;;;;9.65;1.42;;;12.00;99.90;;;;;;4924533;29;20051;-81
2022/10/06 02:36:05;;;;;;;9.80;1.60;;;11.90;99.90;;;;;;4923196;29;20115;-81
2022/10/06 02:38:31;;;;;;;7.82;1.30;;;11.90;99.90;;;;;;4923940;29;20646;-80
2022/10/06 02:41:09;;;;;;;12.02;2.00;;;11.90;99.90;;;;;;4940876;29;20164;-80
2022/10/06 02:43:36;;;;;;;11.50;2.15;;;11.90;99.90;;;;;;4923288;29;20087;-81
2022/10/06 02:46:09;;;;;;;10.25;1.30;;;11.90;99.90;;;;;;4940891;29;20054;-81
2022/10/06 02:48:34;;;;;;;7.93;1.40;;;11.90;99.90;;;;;;4924199;29;20059;-81
2022/10/06 02:51:06;;;;;;;8.23;1.25;;;12.00;99.90;;;;;;4924132;29;20074;-81
2022/10/06 02:53:33;;;;;;;6.05;1.27;;;12.00;99.90;;;;;;4940018;29;20491;-81
2022/10/06 02:56:16;;;;;;;8.88;1.20;;;12.00;99.90;;;;;;4940830;29;20376;-81
2022/10/06 02:58:43;;;;;;;;;;;12.00;99.90;;;;;;4921972;29;20062;-81
2022/10/06 03:01:14;;;;;;;9.73;1.55;;;12.00;99.90;;;;;;4921671;29;20457;-81
2022/10/06 03:03:40;;;;;;;9.65;1.80;;;12.00;99.90;;;;;;4938945;29;20395;-81
2022/10/06 03:06:29;;;;;;;11.43;1.52;;;12.10;99.90;;;;;;4922605;29;20058;-82
2022/10/06 03:09:00;;;;;;;8.57;1.40;;;12.10;99.90;;;;;;4924478;29;20119;-81
2022/10/06 03:11:34;;;;;;;11.80;2.03;;;12.10;99.90;;;;;;4923268;29;20039;-82
2022/10/06 03:14:00;;;;;;;7.88;1.30;;;12.20;99.90;;;;;;4940053;29;20119;-82
2022/10/06 03:16:34;;;;;;;10.48;1.73;;;12.20;99.90;;;;;;4940192;29;20416;-81
2022/10/06 03:19:00;;;;;;;13.50;1.70;;;12.30;99.90;;;;;;4923788;29;20058;-81
2022/10/06 03:21:29;;;;;;;12.10;1.58;;;12.20;99.90;;;;;;4940465;29;20044;-81
2022/10/06 03:23:56;;;;;;;11.10;1.77;;;12.20;99.90;;;;;;4922526;29;20125;-81
2022/10/06 03:26:26;;;;;;;10.27;1.75;;;12.20;99.90;;;;;;4921809;29;20043;-82
2022/10/06 03:28:52;;;;;;;11.68;1.98;;;12.20;99.90;;;;;;4939259;29;20059;-81
2022/10/06 03:31:18;;;;;;;6.53;1.15;;;12.20;99.90;;;;;;4939156;29;20094;-81
2022/10/06 03:33:44;;;;;;;9.23;1.38;;;12.10;99.90;;;;;;4939548;29;20040;-81
2022/10/06 03:36:16;;;;;;;7.25;1.77;;;12.10;99.90;;;;;;4922741;29;20402;-81
2022/10/06 03:38:42;;;;;;;10.30;1.93;;;12.10;99.90;;;;;;4938088;29;20435;-81
2022/10/06 03:41:16;;;;;;;9.07;1.27;;;12.10;99.90;;;;;;4922977;29;20372;-81
2022/10/06 03:43:44;;;;;;;6.60;1.13;;;12.10;99.90;;;;;;4923550;29;20048;-81
2022/10/06 03:46:12;;;;;;;8.88;1.67;;;12.10;99.90;;;;;;4940688;29;20038;-82
2022/10/06 03:48:37;;;;;;;6.55;1.40;;;12.10;99.90;;;;;;4922555;29;20138;-81
2022/10/06 03:51:15;;;;;;;11.65;1.90;;;12.10;99.90;;;;;;4921883;29;20141;-81
2022/10/06 03:53:46;;;;;;;9.77;1.30;;;12.10;99.90;;;;;;4923701;29;20090;-80
2022/10/06 03:56:19;;;;;;;7.47;1.25;;;12.10;99.90;;;;;;4939686;29;20039;-80
2022/10/06 03:58:49;;;;;;;12.82;1.83;;;12.10;99.90;;;;;;4937570;29;20066;-81
2022/10/06 04:01:18;;;;;;;7.38;1.23;;;12.10;99.90;;;;;;4938590;29;20062;-81
2022/10/06 04:03:44;;;;;;;11.23;1.55;;;12.10;99.90;;;;;;4922820;29;20087;-81
2022/10/06 04:06:18;;;;;;;12.27;1.40;;;12.10;99.90;;;;;;4921961;29;20059;-81
2022/10/06 04:08:46;;;;;;;12.52;1.65;;;12.10;99.90;;;;;;4923017;29;20062;-81
2022/10/06 04:11:16;;;;;;;8.98;1.60;;;12.00;99.90;;;;;;4922332;29;20115;-81
2022/10/06 04:13:51;;;;;;;5.70;1.05;;;12.00;99.90;;;;;;4922433;29;20371;-80
2022/10/06 04:16:22;;;;;;;10.23;1.75;;;11.90;99.90;;;;;;4939219;29;20047;-81
2022/10/06 04:18:49;;;;;;;12.10;1.75;;;11.90;99.90;;;;;;4921638;29;20103;-80
2022/10/06 04:21:16;;;;;;;12.02;1.85;;;11.90;99.90;;;;;;4922145;29;20051;-82
2022/10/06 04:23:41;;;;;;;12.85;2.65;;;11.90;99.90;;;;;;4938357;29;20078;-81
2022/10/06 04:26:14;;;;;;;9.48;2.25;;;11.80;99.90;;;;;;4937362;29;20150;-81
2022/10/06 04:28:42;;;;;;;10.30;2.22;;;11.80;99.90;;;;;;4920329;29;20059;-81
2022/10/06 04:31:14;;;;;;;10.63;1.55;;;11.70;99.90;;;;;;4937631;29;20106;-81
2022/10/06 04:33:41;;;;;;;9.95;1.90;;;11.80;99.90;;;;;;4920142;29;20467;-81
2022/10/06 04:36:09;;;;;;;9.48;1.83;;;11.70;99.90;;;;;;4937874;29;20098;-81
2022/10/06 04:38:35;;;;;;;12.52;2.20;;;11.70;99.90;;;;;;4921082;29;20044;-81
2022/10/06 04:41:14;;;;;;;11.18;2.20;;;11.70;99.90;;;;;;4920906;29;20052;-81
2022/10/06 04:43:40;;;;;;;8.80;2.33;;;11.70;99.90;;;;;;4938302;29;20502;-81
2022/10/06 04:46:06;;;;;;;13.45;1.92;;;11.70;99.90;;;;;;4920407;29;20066;-81
2022/10/06 04:48:32;;;;;;;12.43;2.25;;;11.60;99.90;;;;;;4936845;29;20047;-81
2022/10/06 04:51:13;;;;;;;12.30;1.92;;;11.60;99.90;;;;;;4937258;29;20055;-81
2022/10/06 04:53:39;;;;;;;10.23;1.88;;;11.60;99.90;;;;;;4921535;29;20073;-81
2022/10/06 04:56:13;;;;;;;11.70;2.10;;;11.50;99.90;;;;;;4937182;29;20035;-81
2022/10/06 04:58:45;;;;;;;11.75;1.63;;;11.50;99.90;;;;;;4907654;29;20055;-81
2022/10/06 05:01:24;;;;;;;9.43;1.98;;;11.50;99.90;;;;;;4921450;29;20055;-81
2022/10/06 05:03:52;;;;;;;10.75;1.85;;;11.50;99.90;;;;;;4919269;29;20130;-81
2022/10/06 05:06:20;;;;;;;14.02;2.47;;;11.50;99.90;;;;;;4920966;29;20047;-80
2022/10/06 05:08:54;;;;;;;17.08;2.25;;;11.50;99.90;;;;;;4921092;29;20035;-81
2022/10/06 05:11:21;;;;;;;15.75;1.90;;;11.50;99.90;;;;;;4937609;29;20082;-81
2022/10/06 05:13:55;;;;;;;14.48;2.00;;;11.50;99.90;;;;;;4937213;29;20082;-81
2022/10/06 05:16:23;;;;;;;12.10;1.77;;;11.50;99.90;;;;;;4937428;29;20115;-81
2022/10/06 05:18:49;;;;;;;11.68;1.98;;;11.40;99.90;;;;;;4937073;29;20051;-81
2022/10/06 05:21:21;;;;;;;11.93;2.15;;;11.40;99.90;;;;;;4920935;29;20048;-80
2022/10/06 05:23:48;;;;;;;11.18;1.90;;;11.40;99.90;;;;;;4937838;29;20119;-81
2022/10/06 05:26:17;;;;;;;10.27;1.70;;;11.40;99.90;;;;;;4937371;29;20054;-81
2022/10/06 05:28:43;;;;;;;14.65;1.90;;;11.40;99.90;;;;;;4920647;29;20055;-82
2022/10/06 05:31:18;;;;;;;10.05;1.85;;;11.30;99.90;;;;;;4919881;29;20043;-80
2022/10/06 05:33:44;;;;;;;9.55;2.08;;;11.30;99.90;;;;;;4920017;29;20055;-81
2022/10/06 05:36:12;;;;;;;9.25;1.63;;;11.30;99.90;;;;;;4919740;29;20049;-79
2022/10/06 05:38:39;;;;;;;10.27;1.67;;;11.30;99.90;;;;;;4919834;29;20514;-81
2022/10/06 05:41:13;;;;;;;13.25;1.55;;;11.30;99.90;;;;;;4917907;29;20055;-81
2022/10/06 05:43:40;;;;;;;10.40;1.48;;;11.30;99.90;;;;;;4919040;29;20058;-81
2022/10/06 05:46:16;;;;;;;14.40;1.80;;;11.20;99.90;;;;;;4920009;29;20059;-81
2022/10/06 05:48:45;;;;;;;8.00;2.00;;;11.20;99.90;;;;;;4923162;29;20067;-81
2022/10/06 05:51:11;;;;;;;11.75;1.55;;;11.10;99.90;;;;;;4922843;29;20056;-81
2022/10/06 05:53:36;;;;;;;16.20;2.00;;;11.20;99.90;;;;;;4938946;29;20058;-87
2022/10/06 05:56:05;;;;;;;12.85;1.90;;;11.20;99.90;;;;;;4914157;29;20395;-80
2022/10/06 05:58:31;;;;;;;11.82;1.80;;;11.20;99.90;;;;;;4920525;29;20081;-81
2022/10/06 06:01:09;;;;;;;10.43;2.03;;;11.20;99.90;;;;;;4920794;29;20115;-80
2022/10/06 06:03:36;;;;;;;9.32;1.45;;;11.10;99.90;;;;;;4920570;29;20052;-81
2022/10/06 06:06:16;;;;;;;10.07;1.60;;;11.10;99.90;;;;;;4903510;29;20044;-80
2022/10/06 06:08:42;;;;;;;12.75;2.28;;;11.10;99.90;;;;;;4920314;29;20435;-80
2022/10/06 06:11:08;;;;;;;12.50;2.08;;;11.10;99.90;;;;;;4903467;29;20052;-80
2022/10/06 06:13:35;;;;;;;10.60;1.33;;;11.10;99.90;;;;;;4905300;29;20381;-80
2022/10/06 06:16:03;;;;;;;7.85;1.45;;;11.10;99.90;;;;;;4911537;29;20045;-80
2022/10/06 06:18:36;;;;;;;7.63;1.30;;;11.10;99.90;;;;;;4903408;29;20087;-84
2022/10/06 06:21:02;;;;;;;;;;;11.10;99.90;;;;;;4931185;29;20395;-81
2022/10/06 06:23:46;;;;;;;7.82;1.92;;;11.10;99.90;;;;;;4921633;29;20323;-81
2022/10/06 06:26:23;;;;;;;10.13;2.03;;;11.10;99.90;;;;;;4921395;29;20063;-80
2022/10/06 06:28:55;;;;;;;12.13;1.73;;;11.20;99.90;;;;;;4922060;29;20044;-81
2022/10/06 06:31:26;;;;;;;13.98;1.98;;;11.20;99.90;;;;;;4939032;29;20044;-80
2022/10/06 06:33:54;;;;;;;11.00;1.83;;;11.20;99.90;;;;;;4921982;29;20075;-81
2022/10/06 06:36:34;;;;;;;7.88;1.80;;;11.20;99.90;;;;;;4921841;29;20058;-81
2022/10/06 06:39:01;;;;;;;10.73;2.00;;;11.20;99.90;;;;;;4921791;29;20058;-80
2022/10/06 06:41:32;;;;;;;17.02;2.85;;;11.30;99.90;;;;;;4921747;29;20051;-80
2022/10/06 06:43:59;;;;;;;9.55;1.83;;;11.30;99.90;;;;;;4938431;29;20098;-81
2022/10/06 06:46:27;;;;;;;14.20;1.92;;;11.30;99.90;;;;;;4939061;29;20071;-81
2022/10/06 06:48:54;;;;;;;12.93;2.30;;;11.30;99.90;;;;;;4938859;29;20062;-82
2022/10/06 06:51:22;;;;;;;13.02;1.58;;;11.40;99.90;;;;;;4921786;29;20042;-81
2022/10/06 06:53:52;;;;;;;11.80;2.00;;;11.50;99.90;;;;;;4922014;29;20098;-80
2022/10/06 06:56:20;;;;;;;13.25;2.10;;;11.50;99.90;;;;;;4921636;29;20411;-81
2022/10/06 06:58:46;;;;;;;9.77;1.73;;;11.60;99.90;;;;;;4921273;29;20070;-80
2022/10/06 07:01:15;;;;;;;9.77;2.13;;;11.60;99.90;;;;;;4921659;29;20439;-81
2022/10/06 07:03:42;;;;;;;9.90;2.60;;;11.70;99.90;;;;;;4938840;29;20047;-81
2022/10/06 07:06:11;;;;;;;7.63;1.55;;;11.80;99.90;;;;;;4922019;29;20064;-82
2022/10/06 07:08:41;;;;;;;9.63;1.63;;;11.80;99.90;;;;;;4921522;29;20483;-82
2022/10/06 07:11:15;;;;;;;9.95;1.55;;;11.90;99.90;;;;;;4921708;29;20051;-81
2022/10/06 07:13:41;;;;;;;8.02;2.45;;;11.90;99.90;;;;;;4938715;29;20067;-81
2022/10/06 07:27:16;;;;;;;14.35;2.03;;;12.20;99.90;;;;;;4938685;29;20107;-81
2022/10/06 07:29:43;;;;;;;10.57;2.45;;;12.30;99.90;;;;;;4921285;29;20131;-81
2022/10/06 07:32:09;;;;;;;12.50;2.20;;;12.30;99.90;;;;;;4938308;29;20044;-81
2022/10/06 07:34:36;;;;;;;11.68;1.67;;;12.40;99.90;;;;;;4920928;29;20410;-81
2022/10/06 07:37:01;;;;;;;10.52;1.80;;;12.50;99.90;;;;;;4921335;29;20044;-81
2022/10/06 07:39:27;;;;;;;7.43;1.30;;;12.60;99.90;;;;;;4938105;29;20388;-81
2022/10/06 07:41:53;;;;;;;14.32;2.10;;;12.70;99.90;;;;;;4938018;29;20050;-81
2022/10/06 07:44:18;;;;;;;12.38;2.15;;;12.80;99.90;;;;;;4920767;29;20043;-81
2022/10/06 07:46:44;;;;;;;12.48;1.98;;;12.80;99.90;;;;;;4937756;29;20126;-91
2022/10/06 07:49:16;;;;;;;8.45;1.80;;;12.90;99.90;;;;;;4921009;29;20502;-81
2022/10/06 07:51:42;;;;;;;11.30;1.70;;;13.00;99.90;;;;;;4920631;29;20051;-80
2022/10/06 07:54:08;;;;;;;10.10;1.77;;;13.10;99.90;;;;;;4937971;29;20067;-81
2022/10/06 07:56:33;;;;;;;11.95;1.80;;;13.20;99.90;;;;;;4937950;29;20395;-81
2022/10/06 07:58:59;;;;;;;14.93;2.22;;;13.30;99.90;;;;;;4920410;29;20063;-81
2022/10/06 08:01:26;;;;;;;8.93;1.42;;;13.30;99.90;;;;;;4937657;29;20063;-81
2022/10/06 08:03:51;;;;;;;10.82;1.73;;;13.40;99.90;;;;;;4920701;29;20094;-82
2022/10/06 08:06:18;;;;;;;12.70;1.77;;;13.40;99.90;;;;;;4920461;29;20454;-82
2022/10/06 08:08:46;;;;;;;11.95;1.48;;;13.50;99.90;;;;;;4937069;29;20072;-82
2022/10/06 08:11:12;;;;;;;10.32;1.55;;;13.60;99.90;;;;;;4937528;29;20075;-82
2022/10/06 08:13:44;;;;;;;13.38;1.63;;;13.60;99.90;;;;;;4937457;29;20122;-82
2022/10/06 08:16:16;;;;;;;11.15;1.42;;;13.70;99.90;;;;;;4937532;29;20040;-81
2022/10/06 08:18:43;;;;;;;12.52;1.58;;;13.80;99.90;;;;;;4937428;29;20118;-81
2022/10/06 08:21:12;;;;;;;8.45;1.80;;;13.80;99.90;;;;;;4920394;29;20583;-82
2022/10/06 08:23:41;;;;;;;10.93;2.08;;;13.90;99.90;;;;;;4920119;29;20060;-81
2022/10/06 08:26:08;;;;;;;9.63;1.50;;;14.00;99.90;;;;;;4937349;29;20040;-83
2022/10/06 08:28:35;;;;;;;8.07;1.67;;;14.00;99.90;;;;;;4937307;29;20148;-81
2022/10/06 08:31:11;;;;;;;11.10;1.80;;;14.10;99.90;;;;;;4920238;29;20491;-81
2022/10/06 08:33:38;;;;;;;10.13;1.77;;;14.20;99.90;;;;;;4936920;29;20487;-81
2022/10/06 08:36:10;;;;;;;8.68;1.75;;;14.30;99.90;;;;;;4920199;29;20048;-81
2022/10/06 08:38:36;;;;;;;13.13;2.50;;;14.40;99.90;;;;;;4936674;29;20432;-81
2022/10/06 08:41:19;;;;;;;8.15;1.67;;;14.40;99.90;;;;;;4919725;29;20499;-81
2022/10/06 08:44:13;;;;;;;8.57;1.80;;;14.40;99.90;;;;;;4919969;29;20495;-81
2022/10/06 08:46:59;;;;;;;10.77;1.50;;;14.50;99.90;;;;;;4885758;29;20138;-81
2022/10/06 08:49:32;;;;;;;11.60;1.90;;;14.60;99.90;;;;;;4919913;29;20149;-80
2022/10/06 08:51:58;;;;;;;8.50;1.38;;;14.60;99.90;;;;;;4919828;29;20081;-81
2022/10/06 08:54:52;;;;;;;14.52;1.40;;;14.70;99.90;;;;;;4919748;29;20075;-81
2022/10/06 08:57:35;;;;;;;11.68;1.80;;;14.80;99.90;;;;;;4919772;29;20142;-81
2022/10/06 09:00:02;;;;;;;13.60;1.63;;;14.70;99.90;;;;;;4919412;29;20132;-81
2022/10/06 09:02:33;;;;;;;11.38;1.40;;;14.90;99.90;;;;;;4919508;29;20059;-81
2022/10/06 09:05:03;;;;;;;9.38;1.40;;;14.90;99.90;;;;;;4919951;29;20052;-82
2022/10/06 09:07:29;;;;;;;12.73;1.80;;;15.00;99.90;;;;;;4919689;29;20135;-81
2022/10/06 09:10:20;;;;;;;8.70;1.40;;;15.00;99.90;;;;;;4936379;29;20135;-81
2022/10/06 09:13:05;;;;;;;9.55;1.55;;;15.10;99.90;;;;;;4915012;29;20098;-81
2022/10/06 09:15:48;;;;;;;10.32;1.80;;;15.10;99.90;;;;;;4936678;29;20047;-81
2022/10/06 09:18:16;;;;;;;;;;;15.20;99.90;;;;;;4919845;29;20054;-80
2022/10/06 09:20:42;;;;;;;10.77;1.83;;;15.30;99.90;;;;;;4936240;29;20396;-81
2022/10/06 09:23:15;;;;;;;12.00;1.65;;;15.40;99.90;;;;;;4936619;29;20047;-81
2022/10/06 09:25:41;;;;;;;8.68;1.77;;;15.40;99.90;;;;;;4919465;29;20056;-81
2022/10/06 09:28:11;;;;;;;11.38;1.75;;;15.60;99.90;;;;;;4919237;29;20055;-81
2022/10/06 09:30:37;;;;;;;7.93;1.80;;;15.70;99.90;;;;;;4919731;29;20071;-81
2022/10/06 09:33:04;;;;;;;7.85;1.88;;;15.70;99.90;;;;;;4919426;29;20503;-81
2022/10/06 09:35:33;;;;;;;13.40;1.88;;;15.70;99.90;;;;;;4919470;29;20381;-81
2022/10/06 09:38:03;;;;;;;8.32;1.73;;;15.70;99.90;;;;;;4919413;29;20050;-81
2022/10/06 09:40:48;;;;;;;7.95;1.42;;;15.70;99.90;;;;;;4919303;29;20126;-81
2022/10/06 09:43:37;;;;;;;10.88;1.25;;;15.70;99.90;;;;;;4936234;29;20039;-81
2022/10/06 09:46:21;;;;;;;10.85;1.60;;;15.60;99.90;;;;;;4919010;29;20130;-80
2022/10/06 09:48:47;;;;;;;9.00;1.55;;;15.80;99.90;;;;;;4919078;29;20051;-81
2022/10/06 09:51:17;;;;;;;9.48;2.05;;;15.70;99.90;;;;;;4919012;29;20040;-81
2022/10/06 09:54:01;;;;;;;14.27;1.80;;;15.60;99.90;;;;;;4936308;29;20035;-80
2022/10/06 09:56:27;;;;;;;9.43;1.33;;;15.60;99.90;;;;;;4918952;29;20075;-81
2022/10/06 09:58:59;;;;;;;11.65;2.05;;;15.80;99.90;;;;;;4918833;29;20134;-81
2022/10/06 10:01:29;;;;;;;8.77;1.25;;;16.00;99.90;;;;;;4936296;29;20044;-81
2022/10/06 10:03:59;;;;;;;9.40;1.30;;;16.20;99.90;;;;;;4919098;29;20070;-82
2022/10/06 10:06:29;;;;;;;6.85;1.10;;;16.30;99.90;;;;;;4936182;29;20060;-80
2022/10/06 10:09:13;;;;;;;8.27;1.02;;;16.50;99.90;;;;;;4936137;29;20044;-82
2022/10/06 10:14:23;;;;;;;6.55;1.40;;;16.70;99.90;;;;;;4935922;29;20063;-81
2022/10/06 10:16:49;;;;;;;8.15;1.30;;;16.70;99.90;;;;;;4918736;29;20095;-81
2022/10/06 10:19:27;;;;;;;9.43;1.38;;;16.40;99.90;;;;;;4918765;29;20054;-81
2022/10/06 10:21:55;;;;;;;9.30;1.10;;;16.30;99.90;;;;;;4918759;29;20048;-81
2022/10/06 10:24:52;;;;;;;11.50;1.70;;;16.30;99.90;;;;;;4935771;29;20047;-82
2022/10/06 10:27:26;;;;;;;6.57;1.10;;;16.40;99.90;;;;;;4935784;29;20399;-81
2022/10/06 10:30:01;;;;;;;9.63;1.70;;;16.50;99.90;;;;;;4918735;29;20090;-81
2022/10/06 10:32:37;;;;;;;9.60;1.27;;;16.60;99.90;;;;;;4920174;29;20087;-82
2022/10/06 10:35:21;;;;;;;6.15;1.30;;;16.80;99.90;;;;;;4922091;29;20563;-82
2022/10/06 10:38:02;;;;;;;11.13;1.73;;;17.00;99.90;;;;;;4922045;29;20055;-81
2022/10/06 10:40:39;;;;;;;11.05;1.17;;;17.10;99.90;;;;;;4939320;29;20059;-81
2022/10/06 10:43:10;;;;;;;8.30;1.05;;;17.10;99.90;;;;;;4939412;29;20050;-81
2022/10/06 10:45:44;;;;;;;10.10;1.38;;;16.90;99.90;;;;;;4921909;29;20055;-81
2022/10/06 10:48:29;;;;;;;5.75;1.25;;;16.70;99.90;;;;;;4939262;29;20135;-81
2022/10/06 10:51:08;;;;;;;5.13;0.88;;;16.50;99.90;;;;;;4938971;29;20446;-81
2022/10/06 10:53:50;;;;;;;8.48;1.08;;;16.30;99.90;;;;;;4921927;29;20043;-81
2022/10/06 10:56:18;;;;;;;5.75;1.33;;;16.30;99.90;;;;;;4921797;29;20052;-81
2022/10/06 10:58:47;;;;;;;6.15;1.42;;;16.50;99.90;;;;;;4921527;29;20484;-82
2022/10/06 11:01:39;;;;;;;10.13;1.20;;;16.80;99.90;;;;;;4939057;29;20059;-81
2022/10/06 11:04:10;;;;;;;5.13;1.20;;;16.80;99.90;;;;;;4922117;29;20052;-81
2022/10/06 11:06:45;;;;;;;5.50;0.90;;;16.90;99.90;;;;;;4921767;29;20403;-81
2022/10/06 11:09:39;;;;;;;5.63;0.95;;;16.90;99.90;;;;;;4921768;29;20048;-82
2022/10/06 11:12:05;;;;;;;6.80;0.90;;;17.10;99.90;;;;;;4911117;29;20055;-81
2022/10/06 11:14:34;;;;;;;8.73;1.05;;;17.00;99.90;;;;;;4921699;29;20050;-81
2022/10/06 11:17:12;;;;;;;8.18;1.00;;;16.80;99.90;;;;;;4938602;29;20082;-81
2022/10/06 11:19:50;;;;;;;8.15;0.90;;;16.60;99.90;;;;;;4921301;29;20055;-81
2022/10/06 11:22:42;;;;;;;7.70;1.23;;;16.50;99.90;;;;;;4938409;29;20054;-80
2022/10/06 11:25:31;;;;;;;6.18;0.77;;;16.40;99.90;;;;;;4921623;29;20134;-81
2022/10/06 11:28:16;;;;;;;7.10;1.10;;;16.60;99.90;;;;;;4921225;29;20048;-82
2022/10/06 11:31:09;;;;;;;4.45;0.98;;;16.80;99.90;;;;;;4938137;29;20525;-81
2022/10/06 11:33:39;;;;;;;5.28;0.80;;;16.80;99.90;;;;;;4938188;29;20399;-84
2022/10/06 11:36:12;;;;;;;6.10;1.38;;;16.90;99.90;;;;;;4921077;29;20142;-81
2022/10/06 11:38:42;;;;;;;;;;;17.00;99.90;;;;;;4921427;29;20440;-81
2022/10/06 11:41:28;;;;;;;5.72;0.98;;;17.10;99.90;;;;;;4938322;29;20014;-81
2022/10/06 11:44:32;;;;;;;5.07;1.10;;;17.00;99.90;;;;;;4936994;29;20067;-81
2022/10/06 11:47:06;;;;;;;8.10;1.17;;;17.00;99.90;;;;;;4920975;29;20052;-81
2022/10/06 11:49:35;;;;;;;7.20;1.13;;;17.00;99.90;;;;;;4937997;29;20048;-81
2022/10/06 11:52:10;;;;;;;5.90;0.80;;;17.10;99.90;;;;;;4938011;29;20055;-81
2022/10/06 11:54:38;;;;;;;7.47;0.98;;;17.20;99.90;;;;;;4937796;29;20083;-81
2022/10/06 11:57:53;;;;;;;6.38;0.95;;;17.30;99.90;;;;;;4920684;29;20491;-82
2022/10/06 12:00:19;;;;;;;9.55;1.40;;;17.40;99.90;;;;;;4930512;29;20587;-81
2022/10/06 12:02:45;;;;;;;11.25;1.48;;;17.50;99.90;;;;;;4920716;29;20130;-81
2022/10/06 12:05:30;;;;;;;8.07;1.23;;;17.40;99.90;;;;;;4920548;29;20056;-81
2022/10/06 12:07:59;;;;;;;5.75;1.08;;;17.10;99.90;;;;;;4937750;29;20047;-81
2022/10/06 12:10:27;;;;;;;3.40;0.60;;;17.10;99.90;;;;;;4920662;29;20070;-81
2022/10/06 12:13:18;;;;;;;8.13;1.10;;;17.10;99.90;;;;;;4920529;29;20054;-82
2022/10/06 12:16:05;;;;;;;5.53;0.90;;;17.10;99.90;;;;;;4937386;29;20582;-81
2022/10/06 12:18:44;;;;;;;5.88;0.98;;;17.10;99.90;;;;;;4937525;29;20059;-82
2022/10/06 12:21:16;;;;;;;7.88;0.90;;;17.10;99.90;;;;;;4920607;29;20102;-81
2022/10/06 12:23:57;;;;;;;7.70;1.15;;;17.20;99.90;;;;;;4937222;29;20044;-81
2022/10/06 12:26:50;;;;;;;8.48;1.20;;;17.20;99.90;;;;;;4937224;29;20395;-81
2022/10/06 12:29:25;;;;;;;;;;;17.30;99.90;;;;;;4920544;29;20056;-81
2022/10/06 12:32:19;;;;;;;6.68;0.80;;;17.30;99.90;;;;;;4920081;29;19933;-81
2022/10/06 12:35:06;;;;;;;6.30;1.00;;;17.30;99.90;;;;;;4920254;29;20062;-81
2022/10/06 12:37:50;;;;;;;6.45;1.08;;;17.30;99.90;;;;;;4939393;29;20047;-82
2022/10/06 12:40:42;;;;;;;6.00;1.10;;;17.20;99.90;;;;;;4937051;29;20514;-81
2022/10/06 12:43:17;;;;;;;7.65;1.08;;;17.20;99.90;;;;;;4919860;29;20056;-81
2022/10/06 12:45:55;;;;;;;8.63;0.98;;;17.20;99.90;;;;;;4919966;29;20055;-81
2022/10/06 12:48:32;;;;;;;7.97;0.93;;;17.20;99.90;;;;;;4937057;29;20069;-81
2022/10/06 12:51:01;;;;;;;9.98;1.17;;;17.20;99.90;;;;;;4936716;29;20396;-81
2022/10/06 12:53:31;;;;;;;7.68;0.80;;;17.20;99.90;;;;;;4936773;29;20056;-81
2022/10/06 12:56:04;;;;;;;8.25;1.35;;;17.30;99.90;;;;;;4919366;29;20175;-81
2022/10/06 12:58:32;;;;;;;6.90;1.05;;;17.20;99.90;;;;;;4935967;29;20056;-81
2022/10/06 13:01:12;;;;;;;8.35;1.10;;;17.30;99.90;;;;;;4919762;29;20054;-81
2022/10/06 13:03:38;;;;;;;8.18;1.23;;;17.30;99.90;;;;;;4920007;29;20499;-81
2022/10/06 13:06:07;;;;;;;7.70;1.17;;;17.40;99.90;;;;;;4936564;29;20387;-81
2022/10/06 13:08:35;;;;;;;8.75;1.17;;;17.30;99.90;;;;;;4919616;29;20051;-81
2022/10/06 13:11:23;;;;;;;6.55;1.30;;;17.30;99.90;;;;;;4936848;29;20051;-82
2022/10/06 13:13:54;;;;;;;9.77;1.10;;;17.30;99.90;;;;;;4936434;29;20052;-81
2022/10/06 13:16:25;;;;;;;11.45;1.10;;;17.20;99.90;;;;;;4936580;29;20055;-81
2022/10/06 13:18:55;;;;;;;10.63;1.30;;;17.30;99.90;;;;;;4936608;29;20040;-81